Armington, Illinois
Current Conditions -  °F | °C
As of 11:35 AM on Friday 21 Nov 2014 (Local Time) from KAAA Reporting Station
Clear Clear  
Wind Chill: 24°   Ceiling: Unl
Heat Index: 32°   Visibility: 10mi
Dew Point:   Wind: 10mph
Humidity: 38%   Direction: 140°SE
Pressure: 30.44"   Gusts: NA
Location:  40.34°N, 89.31°W
Report Text: KAAA 211735Z AUTO 14009KT 10SM CLR 00/M13 A3044 RMK AO2 T00011129
Loading
Personal Weather Stations






























Interactive Weather Map New forecast layout! Learn more

10-Day Weather Forecast

Advertisements
Track Severe Weather on mobile